createdAt,value
2017-12-23T00:01:47.583Z,7.00
2017-12-23T00:04:16.679Z,7.00
2017-12-23T00:06:44.164Z,6.90
2017-12-23T00:09:12.435Z,7.00
2017-12-23T00:11:40.684Z,7.00
2017-12-23T00:14:08.184Z,6.90
2017-12-23T00:16:36.410Z,7.00
2017-12-23T00:19:03.907Z,6.90
2017-12-23T00:21:31.401Z,6.90
2017-12-23T00:23:58.898Z,7.00
2017-12-23T00:26:26.384Z,7.00
2017-12-23T00:28:53.868Z,7.00
2017-12-23T00:31:21.367Z,7.00
2017-12-23T00:33:48.851Z,7.00
2017-12-23T00:36:17.118Z,7.10
2017-12-23T00:38:45.384Z,7.00
2017-12-23T00:41:12.887Z,6.90
2017-12-23T00:43:40.363Z,7.00
2017-12-23T00:46:07.863Z,7.00
2017-12-23T00:48:35.340Z,7.00
2017-12-23T00:51:02.815Z,7.00
2017-12-23T00:53:31.079Z,6.90
2017-12-23T00:55:59.328Z,6.90
2017-12-23T00:58:26.826Z,6.80
2017-12-23T01:00:55.072Z,6.90
2017-12-23T01:03:22.575Z,6.90
2017-12-23T01:05:50.055Z,6.90
2017-12-23T01:08:17.559Z,6.90
2017-12-23T01:10:45.040Z,6.90
2017-12-23T01:13:13.308Z,7.00
2017-12-23T01:15:40.788Z,6.90
2017-12-23T01:18:09.031Z,6.90
2017-12-23T01:20:36.528Z,6.90
2017-12-23T01:23:04.770Z,6.80
2017-12-23T01:25:32.268Z,6.80
2017-12-23T01:28:00.511Z,6.80
2017-12-23T01:30:28.007Z,6.80
2017-12-23T01:32:55.483Z,6.80
2017-12-23T01:35:22.978Z,6.80
2017-12-23T01:37:50.454Z,6.80
2017-12-23T01:40:17.951Z,6.80
2017-12-23T01:42:45.435Z,6.80
2017-12-23T01:45:12.913Z,6.70
2017-12-23T01:47:40.414Z,6.80
2017-12-23T01:50:08.650Z,6.80
2017-12-23T01:52:36.151Z,6.70
2017-12-23T01:55:04.391Z,6.80
2017-12-23T01:57:31.891Z,6.70
2017-12-23T02:00:00.139Z,6.80
2017-12-23T02:02:27.636Z,6.70
2017-12-23T02:04:55.111Z,6.80
2017-12-23T02:07:22.587Z,6.80
2017-12-23T02:09:50.085Z,6.80
2017-12-23T02:12:17.599Z,6.80
2017-12-23T02:14:45.096Z,6.80
2017-12-23T02:17:12.575Z,6.80
2017-12-23T02:19:40.847Z,6.70
2017-12-23T02:22:09.095Z,6.60
2017-12-23T02:24:36.596Z,6.60
2017-12-23T02:27:04.842Z,6.70
2017-12-23T02:29:32.335Z,6.60
2017-12-23T02:32:00.579Z,6.70
2017-12-23T02:34:28.080Z,6.70
2017-12-23T02:36:55.555Z,6.80
2017-12-23T02:39:23.031Z,6.80
2017-12-23T02:41:50.531Z,6.70
2017-12-23T02:44:18.008Z,6.70
2017-12-23T02:46:46.271Z,6.70
2017-12-23T02:49:14.516Z,6.70
2017-12-23T02:51:42.019Z,6.60
2017-12-23T02:54:10.264Z,6.70
2017-12-23T02:56:37.762Z,6.70
2017-12-23T02:59:05.239Z,6.70
2017-12-23T03:01:32.776Z,6.70
2017-12-23T03:04:01.023Z,6.70
2017-12-23T03:06:28.503Z,6.60
2017-12-23T03:08:56.762Z,6.60
2017-12-23T03:11:24.240Z,6.50
2017-12-23T03:13:52.744Z,6.60
2017-12-23T03:16:20.221Z,6.50
2017-12-23T03:18:47.719Z,6.60
2017-12-23T03:21:15.198Z,6.60
2017-12-23T03:23:43.459Z,6.70
2017-12-23T03:26:10.937Z,6.60
2017-12-23T03:28:39.176Z,6.70
2017-12-23T03:31:06.707Z,6.60
2017-12-23T03:33:34.186Z,6.70
2017-12-23T03:36:01.683Z,6.60
2017-12-23T03:38:29.925Z,6.60
2017-12-23T03:40:57.432Z,6.50
2017-12-23T03:43:25.671Z,6.60
2017-12-23T03:45:53.175Z,6.60
2017-12-23T03:48:20.650Z,6.60
2017-12-23T03:50:48.127Z,6.60
2017-12-23T03:53:15.629Z,6.70
2017-12-23T03:55:43.876Z,6.50
2017-12-23T03:58:11.377Z,6.50
2017-12-23T04:00:38.861Z,6.50
2017-12-23T04:03:06.358Z,6.60
2017-12-23T04:05:33.835Z,6.60
2017-12-23T04:08:02.107Z,6.50
2017-12-23T04:10:30.355Z,6.50
2017-12-23T04:12:57.838Z,6.40
2017-12-23T04:15:25.332Z,6.50
2017-12-23T04:17:52.814Z,6.50
2017-12-23T04:20:20.314Z,6.60
2017-12-23T04:22:47.795Z,6.60
2017-12-23T04:25:16.051Z,6.50
2017-12-23T04:27:44.295Z,6.50
2017-12-23T04:30:11.791Z,6.40
2017-12-23T04:32:40.040Z,6.40
2017-12-23T04:35:07.516Z,6.40
2017-12-23T04:37:35.016Z,6.50
2017-12-23T04:40:02.544Z,6.50
2017-12-23T04:42:30.807Z,6.50
2017-12-23T04:44:58.288Z,6.50
2017-12-23T04:47:26.547Z,6.50
2017-12-23T04:49:54.023Z,6.50
2017-12-23T04:52:22.287Z,6.60
2017-12-23T04:54:50.539Z,6.50
2017-12-23T04:57:18.020Z,6.40
2017-12-23T04:59:46.287Z,6.40
2017-12-23T05:02:13.770Z,6.40
2017-12-23T05:04:42.041Z,6.40
2017-12-23T05:07:10.282Z,6.50
2017-12-23T05:09:37.778Z,6.40
2017-12-23T05:12:06.027Z,6.30
2017-12-23T05:14:33.532Z,6.30
2017-12-23T05:17:01.014Z,6.50
2017-12-23T05:19:28.515Z,6.40
2017-12-23T05:21:56.766Z,6.50
2017-12-23T05:24:25.026Z,6.50
2017-12-23T05:26:52.507Z,6.40
2017-12-23T05:29:20.005Z,6.50
2017-12-23T05:31:48.248Z,6.50
2017-12-23T05:34:15.727Z,6.40
2017-12-23T05:36:43.991Z,6.50
2017-12-23T05:39:11.471Z,6.40
2017-12-23T05:41:39.741Z,6.50
2017-12-23T05:44:07.991Z,6.60
2017-12-23T05:46:35.491Z,6.50
2017-12-23T05:49:02.972Z,6.50
2017-12-23T05:51:30.472Z,6.50
2017-12-23T05:53:57.955Z,6.40
2017-12-23T05:56:26.200Z,6.50
2017-12-23T05:58:53.695Z,6.40
2017-12-23T06:01:21.971Z,6.60
2017-12-23T06:03:50.234Z,6.60
2017-12-23T06:06:18.479Z,6.60
2017-12-23T06:08:45.979Z,6.50
2017-12-23T06:11:14.220Z,6.50
2017-12-23T06:13:42.518Z,6.50
2017-12-23T06:16:09.999Z,6.50
2017-12-23T06:18:38.263Z,6.60
2017-12-23T06:21:06.510Z,6.50
2017-12-23T06:23:33.991Z,6.50
2017-12-23T06:26:01.487Z,6.50
2017-12-23T06:28:28.970Z,6.50
2017-12-23T06:30:56.722Z,6.50
2017-12-23T06:33:24.199Z,6.50
2017-12-23T06:35:51.695Z,6.50
2017-12-23T06:38:19.759Z,6.50
2017-12-23T06:40:47.259Z,6.50
2017-12-23T06:43:14.739Z,6.50
2017-12-23T06:45:42.235Z,6.60
2017-12-23T06:48:09.715Z,6.60
2017-12-23T06:50:37.960Z,6.60
2017-12-23T06:53:05.466Z,6.50
2017-12-23T06:55:32.951Z,6.60
2017-12-23T06:58:00.491Z,6.60
2017-12-23T07:00:27.975Z,6.50
2017-12-23T07:02:55.472Z,6.50
2017-12-23T07:05:22.963Z,6.50
2017-12-23T07:07:50.463Z,6.50
2017-12-23T07:10:17.951Z,6.50
2017-12-23T07:12:45.495Z,6.50
2017-12-23T07:15:12.991Z,6.50
2017-12-23T07:17:41.239Z,6.60
2017-12-23T07:20:08.735Z,6.50
2017-12-23T07:22:36.236Z,6.60
2017-12-23T07:25:03.739Z,6.70
2017-12-23T07:27:31.986Z,6.70
2017-12-23T07:29:59.483Z,6.60
2017-12-23T07:32:27.726Z,6.70
2017-12-23T07:34:55.263Z,6.60
2017-12-23T07:37:22.747Z,6.70
2017-12-23T07:39:50.227Z,6.70
2017-12-23T07:42:17.736Z,6.70
2017-12-23T07:44:45.220Z,6.70
2017-12-23T07:47:12.728Z,6.70
2017-12-23T07:49:40.265Z,6.80
2017-12-23T07:52:07.723Z,6.70
2017-12-23T07:54:35.971Z,6.70
2017-12-23T07:57:03.495Z,6.70
2017-12-23T07:59:30.992Z,6.80
2017-12-23T08:01:58.488Z,6.80
2017-12-23T08:04:26.755Z,6.80
2017-12-23T08:06:55.000Z,6.70
2017-12-23T08:09:22.502Z,6.60
2017-12-23T08:11:49.979Z,6.80
2017-12-23T08:14:17.464Z,6.70
2017-12-23T08:16:44.966Z,6.70
2017-12-23T08:19:13.207Z,6.80
2017-12-23T08:21:40.708Z,6.70
2017-12-23T08:24:08.189Z,6.80
2017-12-23T08:26:35.692Z,6.90
2017-12-23T08:29:03.180Z,6.90
2017-12-23T08:31:31.457Z,6.90
2017-12-23T08:33:59.702Z,6.90
2017-12-23T08:36:27.209Z,6.80
2017-12-23T08:38:54.690Z,6.90
2017-12-23T08:41:22.219Z,6.90
2017-12-23T08:43:50.492Z,6.90
2017-12-23T08:49:14.903Z,7.00
2017-12-23T08:51:42.384Z,7.10
2017-12-23T08:54:10.682Z,7.10
2017-12-23T08:56:38.185Z,7.00
2017-12-23T08:59:05.664Z,7.20
2017-12-23T09:01:33.166Z,7.20
2017-12-23T09:04:00.713Z,7.20
2017-12-23T09:06:28.302Z,7.20
2017-12-23T09:08:55.831Z,7.20
2017-12-23T09:11:23.383Z,7.10
2017-12-23T09:13:50.951Z,7.10
2017-12-23T09:16:18.469Z,7.10
2017-12-23T09:18:45.985Z,7.20
2017-12-23T09:21:13.478Z,7.20
2017-12-23T09:23:41.002Z,7.20
2017-12-23T09:26:08.559Z,7.30
2017-12-23T09:28:36.084Z,7.30
2017-12-23T09:31:03.610Z,7.30
2017-12-23T09:33:31.161Z,7.20
2017-12-23T09:35:58.693Z,7.30
2017-12-23T09:38:26.190Z,7.40
2017-12-23T09:40:53.757Z,7.40
2017-12-23T09:43:21.244Z,7.40
2017-12-23T09:45:49.534Z,7.30
2017-12-23T09:48:17.791Z,7.30
2017-12-23T09:50:45.404Z,7.20
2017-12-23T09:53:13.655Z,7.30
2017-12-23T09:55:41.918Z,7.30
2017-12-23T09:58:09.432Z,7.20
2017-12-23T10:00:36.928Z,7.30
2017-12-23T10:03:04.484Z,7.30
2017-12-23T10:05:32.111Z,7.40
2017-12-23T10:07:59.725Z,7.50
2017-12-23T10:10:28.055Z,7.60
2017-12-23T10:12:55.621Z,7.50
2017-12-23T10:15:23.165Z,7.60
2017-12-23T10:17:50.800Z,7.60
2017-12-23T10:20:18.378Z,7.70
2017-12-23T10:22:45.893Z,7.80
2017-12-23T10:25:13.426Z,7.80
2017-12-23T10:27:40.930Z,7.80
2017-12-23T10:30:09.248Z,7.70
2017-12-23T10:32:36.758Z,7.60
2017-12-23T10:35:04.244Z,7.70
2017-12-23T10:37:31.756Z,7.70
2017-12-23T10:39:59.244Z,7.70
2017-12-23T10:42:27.740Z,7.70
2017-12-23T10:44:56.048Z,7.70
2017-12-23T10:47:23.543Z,7.60
2017-12-23T10:49:51.097Z,7.60
2017-12-23T10:52:18.551Z,7.70
2017-12-23T10:54:46.064Z,7.70
2017-12-23T10:57:13.559Z,7.80
2017-12-23T10:59:41.058Z,7.80
2017-12-23T11:02:09.336Z,7.80
2017-12-23T11:04:37.597Z,7.80
2017-12-23T11:07:05.103Z,7.80
2017-12-23T11:09:32.596Z,7.70
2017-12-23T11:12:00.101Z,7.80
2017-12-23T11:14:28.355Z,7.80
2017-12-23T11:16:55.840Z,7.70
2017-12-23T11:19:24.109Z,7.90
2017-12-23T11:21:52.355Z,7.90
2017-12-23T11:24:19.865Z,7.80
2017-12-23T11:26:47.352Z,7.90
2017-12-23T11:29:14.840Z,7.90
2017-12-23T11:31:42.402Z,7.80
2017-12-23T11:34:09.860Z,7.80
2017-12-23T11:36:37.377Z,7.70
2017-12-23T11:39:05.635Z,7.70
2017-12-23T11:41:33.124Z,7.60
2017-12-23T11:44:00.640Z,7.70
2017-12-23T11:46:28.899Z,7.60
2017-12-23T11:49:06.680Z,7.50
2017-12-23T11:51:34.176Z,7.60
2017-12-23T11:54:02.457Z,7.70
2017-12-23T11:56:30.721Z,7.70
2017-12-23T11:58:59.021Z,7.60
2017-12-23T12:01:26.786Z,7.50
2017-12-23T12:03:54.305Z,7.60
2017-12-23T12:06:21.830Z,7.60
2017-12-23T12:08:49.331Z,7.60
2017-12-23T12:11:17.661Z,7.60
2017-12-23T12:13:45.206Z,7.50
2017-12-23T12:16:12.941Z,7.60
2017-12-23T12:18:43.429Z,7.70
2017-12-23T12:21:12.645Z,7.80
2017-12-23T12:23:41.880Z,7.70
2017-12-23T12:26:14.784Z,7.90
2017-12-23T12:28:45.576Z,7.90
2017-12-23T12:31:14.219Z,7.90
2017-12-23T12:33:45.686Z,7.70
2017-12-23T12:36:13.494Z,7.80
2017-12-23T12:38:41.136Z,7.80
2017-12-23T12:41:10.862Z,7.70
2017-12-23T12:43:38.536Z,7.70
2017-12-23T12:46:06.109Z,7.70
2017-12-23T12:48:34.422Z,7.70
2017-12-23T12:51:01.986Z,7.60
2017-12-23T12:53:29.524Z,7.70
2017-12-23T12:55:57.080Z,7.70
2017-12-23T12:58:25.781Z,7.50
2017-12-23T13:00:53.342Z,7.50
2017-12-23T13:03:20.900Z,7.50
2017-12-23T13:05:48.482Z,7.50
2017-12-23T13:08:16.042Z,7.70
2017-12-23T13:10:43.614Z,7.70
2017-12-23T13:13:11.155Z,7.80
2017-12-23T13:15:38.750Z,7.70
2017-12-23T13:18:06.253Z,7.70
2017-12-23T13:20:33.823Z,7.60
2017-12-23T13:23:01.337Z,7.50
2017-12-23T13:25:29.227Z,7.50
2017-12-23T13:27:57.525Z,7.60
2017-12-23T13:30:25.049Z,7.50
2017-12-23T13:32:53.350Z,7.70
2017-12-23T13:35:20.858Z,7.70
2017-12-23T13:37:48.375Z,7.80
2017-12-23T13:40:15.891Z,7.80
2017-12-23T13:42:43.410Z,7.70
2017-12-23T13:45:10.930Z,7.70
2017-12-23T13:47:38.455Z,7.70
2017-12-23T13:50:05.962Z,7.70
2017-12-23T13:52:34.252Z,7.70
2017-12-23T13:55:01.763Z,7.60
2017-12-23T13:57:29.259Z,7.60
2017-12-23T13:59:59.582Z,7.60
2017-12-23T14:02:27.841Z,7.50
2017-12-23T14:04:55.362Z,7.40
2017-12-23T14:07:22.888Z,7.50
2017-12-23T14:09:50.432Z,7.60
2017-12-23T14:12:19.612Z,7.50
2017-12-23T14:14:47.138Z,7.40
2017-12-23T14:17:14.642Z,7.30
2017-12-23T14:19:42.190Z,7.40
2017-12-23T14:22:09.746Z,7.40
2017-12-23T14:24:37.271Z,7.40
2017-12-23T14:27:04.850Z,7.40
2017-12-23T14:29:33.682Z,7.40
2017-12-23T14:32:01.242Z,7.40
2017-12-23T14:34:28.801Z,7.40
2017-12-23T14:36:56.482Z,7.40
2017-12-23T14:39:24.150Z,7.40
2017-12-23T14:41:51.750Z,7.40
2017-12-23T14:44:19.850Z,7.40
2017-12-23T14:46:47.351Z,7.40
2017-12-23T14:49:14.877Z,7.40
2017-12-23T14:51:43.157Z,7.30
2017-12-23T14:54:11.432Z,7.30
2017-12-23T14:56:39.736Z,7.30
2017-12-23T14:59:07.243Z,7.20
2017-12-23T15:01:34.761Z,7.20
2017-12-23T15:04:02.269Z,7.20
2017-12-23T15:06:29.803Z,7.20
2017-12-23T15:08:57.300Z,7.20
2017-12-23T15:11:24.790Z,7.20
2017-12-23T15:13:52.305Z,7.10
2017-12-23T15:16:19.805Z,7.10
2017-12-23T15:18:47.329Z,7.10
2017-12-23T15:21:14.825Z,7.10
2017-12-23T15:23:42.370Z,7.10
2017-12-23T15:26:10.625Z,7.10
2017-12-23T15:28:38.126Z,7.00
2017-12-23T15:31:05.646Z,7.10
2017-12-23T15:33:33.149Z,7.00
2017-12-23T15:36:00.686Z,7.00
2017-12-23T15:38:28.956Z,7.10
2017-12-23T15:40:57.244Z,7.10
2017-12-23T15:43:25.510Z,7.10
2017-12-23T15:45:53.001Z,7.00
2017-12-23T15:48:20.522Z,7.10
2017-12-23T15:50:48.013Z,7.10
2017-12-23T15:53:15.535Z,7.00
2017-12-23T15:55:43.039Z,7.00
2017-12-23T15:58:10.552Z,7.00
2017-12-23T16:00:38.046Z,6.90
2017-12-23T16:03:05.565Z,6.90
2017-12-23T16:05:33.073Z,7.00
2017-12-23T16:08:00.585Z,6.80
2017-12-23T16:10:28.882Z,6.90
2017-12-23T16:12:57.177Z,6.80
2017-12-23T16:15:24.769Z,6.70
2017-12-23T16:17:52.264Z,6.80
2017-12-23T16:20:19.814Z,6.80
2017-12-23T16:22:47.309Z,6.80
2017-12-23T16:25:15.590Z,6.90
2017-12-23T16:27:43.906Z,6.80
2017-12-23T16:30:11.429Z,6.80
2017-12-23T16:32:38.992Z,6.90
2017-12-23T16:35:06.576Z,6.90
2017-12-23T16:37:34.139Z,6.80
2017-12-23T16:40:01.668Z,6.70
2017-12-23T16:42:29.210Z,6.80
2017-12-23T16:44:56.756Z,6.60
2017-12-23T16:47:24.277Z,6.70
2017-12-23T16:49:52.614Z,6.70
2017-12-23T16:52:20.900Z,6.70
2017-12-23T16:54:49.243Z,6.70
2017-12-23T16:57:16.781Z,6.60
2017-12-23T16:59:50.176Z,6.70
2017-12-23T17:02:17.703Z,6.70
2017-12-23T17:04:45.967Z,6.70
2017-12-23T17:07:14.326Z,6.70
2017-12-23T17:09:41.903Z,6.60
2017-12-23T17:12:10.248Z,6.70
2017-12-23T17:14:37.781Z,6.60
2017-12-23T17:17:05.329Z,6.70
2017-12-23T17:19:32.832Z,6.80
2017-12-23T17:22:00.318Z,6.80
2017-12-23T17:24:27.828Z,6.70
2017-12-23T17:26:55.389Z,6.80
2017-12-23T17:29:34.898Z,6.80
2017-12-23T17:32:02.503Z,6.70
2017-12-23T17:34:30.025Z,6.70
2017-12-23T17:36:57.544Z,6.70
2017-12-23T17:39:26.033Z,6.70
2017-12-23T17:41:58.527Z,6.70
2017-12-23T17:44:26.794Z,6.70
2017-12-23T17:46:54.322Z,6.60
2017-12-23T17:49:21.814Z,6.70
2017-12-23T17:51:49.325Z,6.80
2017-12-23T17:54:16.833Z,6.80
2017-12-23T17:56:45.105Z,6.70
2017-12-23T17:59:12.622Z,6.60
2017-12-23T18:01:40.128Z,6.70
2017-12-23T18:04:07.640Z,6.70
2017-12-23T18:06:35.137Z,6.70
2017-12-23T18:09:03.606Z,6.70
2017-12-23T18:11:31.134Z,6.70
2017-12-23T18:13:58.628Z,6.70
2017-12-23T18:16:26.141Z,6.80
2017-12-23T18:18:53.647Z,6.80
2017-12-23T18:21:21.163Z,6.80
2017-12-23T18:23:48.660Z,6.70
2017-12-23T18:26:19.324Z,6.70
2017-12-23T18:28:47.597Z,6.70
2017-12-23T18:31:15.089Z,6.60
2017-12-23T18:33:42.629Z,6.70
2017-12-23T18:36:10.909Z,6.70
2017-12-23T18:38:40.208Z,6.60
2017-12-23T18:41:08.531Z,6.60
2017-12-23T18:43:36.058Z,6.50
2017-12-23T18:46:03.553Z,6.60
2017-12-23T18:48:37.485Z,6.70
2017-12-23T18:51:04.993Z,6.70
2017-12-23T18:53:32.502Z,6.70
2017-12-23T18:56:00.023Z,6.70
2017-12-23T18:58:29.473Z,6.70
2017-12-23T19:01:00.124Z,6.70
2017-12-23T19:03:28.377Z,6.70
2017-12-23T19:05:55.906Z,6.60
2017-12-23T19:08:23.396Z,6.70
2017-12-23T19:10:51.589Z,6.70
2017-12-23T19:13:19.877Z,6.70
2017-12-23T19:15:48.141Z,6.70
2017-12-23T19:18:18.381Z,6.70
2017-12-23T19:20:46.645Z,6.70
2017-12-23T19:23:14.247Z,6.60
2017-12-23T19:25:41.745Z,6.60
2017-12-23T19:28:09.358Z,6.70
2017-12-23T19:30:36.858Z,6.70
2017-12-23T19:33:04.364Z,6.60
2017-12-23T19:35:32.630Z,6.70
2017-12-23T19:38:00.894Z,6.70
2017-12-23T19:40:28.416Z,6.60
2017-12-23T19:42:55.913Z,6.70
2017-12-23T19:45:23.449Z,6.70
2017-12-23T19:47:57.957Z,6.70
2017-12-23T19:50:25.468Z,6.60
2017-12-23T19:52:53.841Z,6.70
2017-12-23T19:55:22.118Z,6.60
2017-12-23T19:57:50.409Z,6.60
2017-12-23T20:00:28.984Z,6.60
2017-12-23T20:02:56.477Z,6.50
2017-12-23T20:05:24.804Z,6.60
2017-12-23T20:07:52.338Z,6.50
2017-12-23T20:10:19.828Z,6.60
2017-12-23T20:12:47.354Z,6.50
2017-12-23T20:15:16.119Z,6.60
2017-12-23T20:17:44.410Z,6.60
2017-12-23T20:20:12.686Z,6.60
2017-12-23T20:22:40.972Z,6.60
2017-12-23T20:25:09.262Z,6.50
2017-12-23T20:27:36.770Z,6.50
2017-12-23T20:30:04.306Z,6.50
2017-12-23T20:32:31.809Z,6.60
2017-12-23T20:35:00.105Z,6.60
2017-12-23T20:37:28.378Z,6.50
2017-12-23T20:39:56.642Z,6.60
2017-12-23T20:42:24.942Z,6.50
2017-12-23T20:44:52.455Z,6.40
2017-12-23T20:47:19.991Z,6.50
2017-12-23T20:49:47.512Z,6.50
2017-12-23T20:52:15.818Z,6.40
2017-12-23T20:54:43.357Z,6.30
2017-12-23T20:57:11.626Z,6.30
2017-12-23T20:59:39.912Z,6.40
2017-12-23T21:02:07.417Z,6.30
2017-12-23T21:04:34.952Z,6.40
2017-12-23T21:07:02.461Z,6.50
2017-12-23T21:09:29.991Z,6.50
2017-12-23T21:11:57.491Z,6.50
2017-12-23T21:14:25.763Z,6.30
2017-12-23T21:16:53.289Z,6.20
2017-12-23T21:19:20.789Z,6.40
2017-12-23T21:21:49.082Z,6.50
2017-12-23T21:24:16.595Z,6.40
2017-12-23T21:26:44.098Z,6.50
2017-12-23T21:29:12.388Z,6.40
2017-12-23T21:31:39.893Z,6.40
2017-12-23T21:34:07.409Z,6.50
2017-12-23T21:36:34.915Z,6.60
2017-12-23T21:39:02.469Z,6.50
2017-12-23T21:41:29.994Z,6.50
2017-12-23T21:43:57.494Z,6.40
2017-12-23T21:46:25.015Z,6.40
2017-12-23T21:48:52.680Z,6.30
2017-12-23T21:51:20.174Z,6.30
2017-12-23T21:53:47.701Z,6.30
2017-12-23T21:56:15.197Z,6.30
2017-12-23T21:58:42.730Z,6.40
2017-12-23T22:01:10.225Z,6.40
2017-12-23T22:03:37.724Z,6.50
2017-12-23T22:06:05.245Z,6.50
2017-12-23T22:08:32.746Z,6.40
2017-12-23T22:11:00.254Z,6.40
2017-12-23T22:13:27.783Z,6.40
2017-12-23T22:15:55.284Z,6.30
2017-12-23T22:18:22.830Z,6.30
2017-12-23T22:20:50.322Z,6.30
2017-12-23T22:23:18.670Z,6.40
2017-12-23T22:25:46.195Z,6.30
2017-12-23T22:28:13.713Z,6.40
2017-12-23T22:30:42.001Z,6.40
2017-12-23T22:33:09.504Z,6.30
2017-12-23T22:35:37.005Z,6.40
2017-12-23T22:38:04.518Z,6.40
2017-12-23T22:40:32.005Z,6.40
2017-12-23T22:42:59.517Z,6.30
2017-12-23T22:45:27.025Z,6.30
2017-12-23T22:47:54.514Z,6.30
2017-12-23T22:50:22.794Z,6.30
2017-12-23T22:52:51.164Z,6.30
2017-12-23T22:55:19.425Z,6.30
2017-12-23T22:57:46.939Z,6.20
2017-12-23T23:00:14.433Z,6.20
2017-12-23T23:02:41.933Z,6.30
2017-12-23T23:05:10.230Z,6.30
2017-12-23T23:07:37.724Z,6.20
2017-12-23T23:10:05.216Z,6.20
2017-12-23T23:12:33.497Z,6.20
2017-12-23T23:15:01.758Z,6.30
2017-12-23T23:17:29.262Z,6.20
2017-12-23T23:19:58.725Z,6.30
2017-12-23T23:22:27.006Z,6.20
2017-12-23T23:24:55.320Z,6.10
2017-12-23T23:27:22.828Z,6.10
2017-12-23T23:29:57.853Z,6.20
2017-12-23T23:32:25.361Z,6.20
2017-12-23T23:34:52.888Z,6.30
2017-12-23T23:37:20.387Z,6.30
2017-12-23T23:39:51.903Z,6.20
2017-12-23T23:42:19.416Z,6.20
2017-12-23T23:44:46.906Z,6.10
2017-12-23T23:47:14.434Z,6.20
2017-12-23T23:49:42.949Z,6.20
2017-12-23T23:52:10.470Z,6.20
2017-12-23T23:54:37.973Z,6.10
2017-12-23T23:57:05.490Z,6.20
2017-12-23T23:59:34.936Z,6.30
